createdAt,value
2022-08-09T00:00:00.857Z,102846.91
2022-08-09T00:02:37.217Z,102842.59
2022-08-09T00:06:19.507Z,102849.78
2022-08-09T00:07:57.206Z,102851.56
2022-08-09T00:10:28.529Z,102849.47
2022-08-09T00:12:55.449Z,102846.94
2022-08-09T00:15:26.371Z,102847.22
2022-08-09T00:18:11.982Z,102848.94
2022-08-09T00:20:49.882Z,102850.44
2022-08-09T00:23:57.652Z,102854.75
2022-08-09T00:26:11.142Z,102850.44
2022-08-09T00:28:39.536Z,102848.53
2022-08-09T00:31:30.517Z,102851.13
2022-08-09T00:33:55.003Z,102851.13
2022-08-09T00:36:27.258Z,102844.38
2022-08-09T00:38:58.777Z,102843.78
2022-08-09T00:44:10.305Z,102850.28
2022-08-09T00:44:26.305Z,102847.78
2022-08-09T00:47:04.828Z,102850.28
2022-08-09T00:49:36.560Z,102849.44
2022-08-09T00:52:15.993Z,102846.81
2022-08-09T00:54:45.888Z,102849.94
2022-08-09T00:57:13.735Z,102845.38
2022-08-09T00:59:52.496Z,102844.88
2022-08-09T01:02:22.530Z,102842.72
2022-08-09T01:05:02.687Z,102843.88
2022-08-09T01:08:00.838Z,102847.38
2022-08-09T01:10:32.384Z,102851.91
2022-08-09T01:13:18.254Z,102847.50
2022-08-09T01:15:52.988Z,102849.09
2022-08-09T01:18:30.339Z,102856.22
2022-08-09T01:21:17.021Z,102849.34
2022-08-09T01:24:10.119Z,102848.56
2022-08-09T01:26:42.887Z,102849.25
2022-08-09T01:29:15.886Z,102845.75
2022-08-09T01:32:31.809Z,102855.25
2022-08-09T01:34:35.669Z,102856.34
2022-08-09T01:37:08.826Z,102860.78
2022-08-09T01:39:38.215Z,102859.66
2022-08-09T01:42:08.104Z,102864.53
2022-08-09T01:44:41.283Z,102856.59
2022-08-09T01:47:11.835Z,102864.53
2022-08-09T01:49:41.157Z,102861.00
2022-08-09T01:52:17.964Z,102862.25
2022-08-09T01:54:48.600Z,102859.84
2022-08-09T01:57:40.365Z,102856.03
2022-08-09T02:00:34.845Z,102861.44
2022-08-09T02:03:01.650Z,102859.97
2022-08-09T02:05:37.654Z,102862.00
2022-08-09T02:08:39.693Z,102869.88
2022-08-09T02:11:17.508Z,102862.72
2022-08-09T02:14:02.114Z,102862.94
2022-08-09T02:16:38.987Z,102864.41
2022-08-09T02:19:23.205Z,102879.16
2022-08-09T02:21:55.968Z,102871.44
2022-08-09T02:24:29.698Z,102874.03
2022-08-09T02:27:00.934Z,102874.03
2022-08-09T02:29:32.617Z,102873.94
2022-08-09T02:32:01.908Z,102865.34
2022-08-09T02:34:40.936Z,102860.47
2022-08-09T02:37:14.817Z,102862.97
2022-08-09T02:39:54.966Z,102861.16
2022-08-09T02:42:33.569Z,102862.72
2022-08-09T02:45:08.453Z,102862.72
2022-08-09T02:47:57.299Z,102853.00
2022-08-09T02:50:29.391Z,102847.81
2022-08-09T02:53:03.645Z,102852.19
2022-08-09T02:55:46.848Z,102851.19
2022-08-09T02:58:35.312Z,102849.59
2022-08-09T03:01:10.892Z,102857.31
2022-08-09T03:04:17.742Z,102858.00
2022-08-09T03:06:31.048Z,102857.31
2022-08-09T03:09:01.766Z,102853.88
2022-08-09T03:12:04.178Z,102856.59
2022-08-09T03:14:18.239Z,102858.06
2022-08-09T03:16:48.203Z,102856.59
2022-08-09T03:19:59.520Z,102860.69
2022-08-09T03:22:12.484Z,102859.53
2022-08-09T03:25:03.340Z,102867.34
2022-08-09T03:27:45.309Z,102860.22
2022-08-09T03:30:29.166Z,102864.94
2022-08-09T03:33:17.813Z,102866.78
2022-08-09T03:36:13.061Z,102862.81
2022-08-09T03:38:42.012Z,102865.16
2022-08-09T03:41:15.630Z,102868.13
2022-08-09T03:44:02.906Z,102860.97
2022-08-09T03:46:31.753Z,102865.13
2022-08-09T03:49:03.932Z,102857.09
2022-08-09T03:51:55.107Z,102858.84
2022-08-09T03:54:29.528Z,102865.00
2022-08-09T03:56:59.419Z,102871.38
2022-08-09T03:59:52.837Z,102861.53
2022-08-09T04:02:14.564Z,102870.34
2022-08-09T04:04:45.648Z,102866.50
2022-08-09T04:07:14.826Z,102867.63
2022-08-09T04:09:50.078Z,102868.94
2022-08-09T04:12:44.444Z,102868.28
2022-08-09T04:15:29.703Z,102874.50
2022-08-09T04:18:00.303Z,102866.50
2022-08-09T04:20:28.175Z,102872.31
2022-08-09T04:22:59.260Z,102874.38
2022-08-09T04:25:26.146Z,102873.84
2022-08-09T04:27:53.123Z,102872.84
2022-08-09T04:30:23.356Z,102877.06
2022-08-09T04:32:54.139Z,102880.69
2022-08-09T04:35:21.869Z,102873.91
2022-08-09T04:37:49.993Z,102868.34
2022-08-09T04:40:28.448Z,102881.94
2022-08-09T04:43:03.035Z,102884.78
2022-08-09T04:45:36.083Z,102873.63
2022-08-09T04:48:17.572Z,102879.25
2022-08-09T04:50:45.022Z,102875.41
2022-08-09T04:53:13.937Z,102876.97
2022-08-09T04:55:58.623Z,102883.13
2022-08-09T04:58:27.721Z,102886.50
2022-08-09T05:00:55.579Z,102890.78
2022-08-09T05:03:42.706Z,102889.75
2022-08-09T05:06:27.359Z,102895.97
2022-08-09T05:09:00.584Z,102896.88
2022-08-09T05:11:32.205Z,102900.38
2022-08-09T05:14:05.867Z,102900.72
2022-08-09T05:16:57.955Z,102893.69
2022-08-09T05:19:24.488Z,102892.06
2022-08-09T05:21:55.223Z,102891.69
2022-08-09T05:24:24.165Z,102887.53
2022-08-09T05:26:52.402Z,102888.69
2022-08-09T05:29:23.843Z,102883.81
2022-08-09T05:31:56.622Z,102870.22
2022-08-09T05:34:31.650Z,102875.78
2022-08-09T05:37:07.029Z,102882.31
2022-08-09T05:39:43.750Z,102884.94
2022-08-09T05:42:16.992Z,102884.88
2022-08-09T05:44:50.951Z,102880.44
2022-08-09T05:47:19.384Z,102888.03
2022-08-09T05:50:35.050Z,102894.94
2022-08-09T05:52:36.226Z,102902.72
2022-08-09T05:55:07.343Z,102903.13
2022-08-09T05:57:50.735Z,102912.50
2022-08-09T06:00:23.809Z,102916.97
2022-08-09T06:02:54.685Z,102911.13
2022-08-09T06:05:31.244Z,102909.69
2022-08-09T06:08:19.019Z,102913.06
2022-08-09T06:10:50.975Z,102919.03
2022-08-09T06:13:20.549Z,102911.53
2022-08-09T06:15:51.814Z,102916.78
2022-08-09T06:18:25.082Z,102915.59
2022-08-09T06:20:59.757Z,102917.22
2022-08-09T06:23:58.416Z,102918.88
2022-08-09T06:26:20.251Z,102921.19
2022-08-09T06:28:59.416Z,102922.44
2022-08-09T06:31:31.273Z,102936.16
2022-08-09T06:33:58.812Z,102934.09
2022-08-09T06:36:27.149Z,102933.22
2022-08-09T06:38:57.607Z,102940.19
2022-08-09T06:42:08.023Z,102951.53
2022-08-09T06:44:18.325Z,102950.50
2022-08-09T06:46:45.585Z,102953.00
2022-08-09T06:49:16.012Z,102955.47
2022-08-09T06:51:43.042Z,102953.59
2022-08-09T06:54:14.960Z,102956.91
2022-08-09T06:56:45.622Z,102959.41
2022-08-09T07:00:54.358Z,102962.53
2022-08-09T07:02:04.636Z,102962.41
2022-08-09T07:04:32.307Z,102962.50
2022-08-09T07:07:00.518Z,102962.91
2022-08-09T07:09:55.522Z,102962.13
2022-08-09T07:12:37.915Z,102964.09
2022-08-09T07:16:36.260Z,102960.16
2022-08-09T07:17:56.115Z,102964.94
2022-08-09T07:20:25.411Z,102959.78
2022-08-09T07:22:54.337Z,102964.94
2022-08-09T07:25:21.388Z,102966.44
2022-08-09T07:27:53.426Z,102967.47
2022-08-09T07:30:25.174Z,102961.72
2022-08-09T07:32:53.263Z,102962.03
2022-08-09T07:35:22.663Z,102967.38
2022-08-09T07:37:50.571Z,102966.47
2022-08-09T07:40:20.582Z,102966.47
2022-08-09T07:42:59.043Z,102962.53
2022-08-09T07:45:37.559Z,102955.78
2022-08-09T07:48:08.012Z,102963.69
2022-08-09T07:51:10.051Z,102957.13
2022-08-09T07:54:04.270Z,102954.25
2022-08-09T07:56:28.664Z,102961.53
2022-08-09T07:58:59.457Z,102971.72
2022-08-09T08:01:32.864Z,102973.94
2022-08-09T08:04:00.292Z,102976.31
2022-08-09T08:06:31.888Z,102974.69
2022-08-09T08:09:04.427Z,102973.34
2022-08-09T08:12:24.095Z,102971.25
2022-08-09T08:14:21.180Z,102971.84
2022-08-09T08:17:00.599Z,102984.16
2022-08-09T08:19:34.140Z,102983.56
2022-08-09T08:22:02.318Z,102986.59
2022-08-09T08:24:35.333Z,102988.19
2022-08-09T08:27:16.249Z,102994.53
2022-08-09T08:29:48.566Z,102990.94
2022-08-09T08:32:18.916Z,102996.75
2022-08-09T08:34:58.564Z,102991.63
2022-08-09T08:37:40.804Z,102988.69
2022-08-09T08:40:09.699Z,102990.31
2022-08-09T08:42:38.425Z,102989.72
2022-08-09T08:45:13.306Z,102981.59
2022-08-09T08:47:42.849Z,102986.31
2022-08-09T08:50:18.050Z,102989.19
2022-08-09T08:52:58.295Z,102976.63
2022-08-09T08:55:27.963Z,102995.78
2022-08-09T08:57:57.595Z,102994.03
2022-08-09T09:00:30.383Z,102990.88
2022-08-09T09:03:11.902Z,102981.19
2022-08-09T09:05:59.763Z,102987.66
2022-08-09T09:08:40.318Z,102983.06
2022-08-09T09:11:17.393Z,102993.00
2022-08-09T09:13:57.556Z,102983.13
2022-08-09T09:16:33.759Z,102978.69
2022-08-09T09:19:37.364Z,102980.44
2022-08-09T09:21:59.062Z,102980.25
2022-08-09T09:24:29.811Z,102984.56
2022-08-09T09:26:58.483Z,102992.19
2022-08-09T09:30:11.589Z,102992.63
2022-08-09T09:32:32.326Z,102986.06
2022-08-09T09:35:10.872Z,102979.34
2022-08-09T09:37:45.830Z,102981.25
2022-08-09T09:40:13.151Z,102980.31
2022-08-09T09:42:43.039Z,102979.34
2022-08-09T09:45:14.156Z,102988.91
2022-08-09T09:47:56.431Z,103003.66
2022-08-09T09:50:50.691Z,102991.81
2022-08-09T09:53:21.489Z,102988.50
2022-08-09T09:56:04.526Z,102993.34
2022-08-09T09:58:49.199Z,102987.44
2022-08-09T10:01:31.318Z,102981.38
2022-08-09T10:04:15.773Z,102968.22
2022-08-09T10:06:47.242Z,102972.03
2022-08-09T10:09:22.073Z,102961.13
2022-08-09T10:12:14.163Z,102964.34
2022-08-09T10:14:49.991Z,102962.09
2022-08-09T10:17:51.439Z,102967.44
2022-08-09T10:20:32.241Z,102967.94
2022-08-09T10:23:22.815Z,102959.22
2022-08-09T10:26:07.030Z,102970.59
2022-08-09T10:28:40.426Z,102967.25
2022-08-09T10:32:28.302Z,102965.03
2022-08-09T10:34:11.467Z,102965.84
2022-08-09T10:36:43.179Z,102962.34
2022-08-09T10:39:14.157Z,102964.41
2022-08-09T10:41:48.017Z,102962.13
2022-08-09T10:44:25.470Z,102955.84
2022-08-09T10:48:16.649Z,102968.53
2022-08-09T10:50:58.054Z,102956.47
2022-08-09T10:53:46.972Z,102957.09
2022-08-09T10:56:23.959Z,102956.38
2022-08-09T10:58:53.999Z,102955.63
2022-08-09T11:03:13.857Z,102964.00
2022-08-09T11:04:29.874Z,102950.94
2022-08-09T11:06:57.833Z,102947.94
2022-08-09T11:09:38.631Z,102959.63
2022-08-09T11:12:30.230Z,102962.50
2022-08-09T11:15:01.394Z,102949.97
2022-08-09T11:17:31.326Z,102955.09
2022-08-09T11:20:23.155Z,102951.94
2022-08-09T11:22:57.102Z,102954.13
2022-08-09T11:25:45.374Z,102952.41
2022-08-09T11:28:56.201Z,102949.50
2022-08-09T11:31:49.580Z,102960.38
2022-08-09T11:34:23.313Z,102965.69
2022-08-09T11:36:51.931Z,102958.38
2022-08-09T11:39:18.962Z,102951.81
2022-08-09T11:41:46.961Z,102952.44
2022-08-09T11:44:15.841Z,102945.84
2022-08-09T11:46:57.796Z,102957.69
2022-08-09T11:50:54.250Z,102948.88
2022-08-09T11:53:16.474Z,102951.88
2022-08-09T11:55:52.772Z,102949.81
2022-08-09T11:58:33.005Z,102948.41
2022-08-09T12:01:03.383Z,102947.91
2022-08-09T12:03:56.803Z,102943.94
2022-08-09T12:06:32.046Z,102943.94
2022-08-09T12:09:01.326Z,102938.31
2022-08-09T12:11:28.722Z,102939.09
2022-08-09T12:14:08.447Z,102938.00
2022-08-09T12:16:41.623Z,102943.81
2022-08-09T12:19:13.121Z,102939.84
2022-08-09T12:21:50.874Z,102947.59
2022-08-09T12:24:24.371Z,102948.28
2022-08-09T12:29:10.128Z,102939.78
2022-08-09T12:30:01.744Z,102938.44
2022-08-09T12:32:43.139Z,102936.53
2022-08-09T12:35:13.317Z,102942.31
2022-08-09T12:37:51.665Z,102931.56
2022-08-09T12:40:23.385Z,102939.88
2022-08-09T12:42:52.763Z,102927.13
2022-08-09T12:45:34.238Z,102931.00
2022-08-09T12:48:10.869Z,102933.28
2022-08-09T12:50:48.108Z,102923.06
2022-08-09T12:53:40.704Z,102921.50
2022-08-09T12:56:42.933Z,102918.91
2022-08-09T12:59:57.497Z,102906.09
2022-08-09T13:02:15.217Z,102910.63
2022-08-09T13:04:58.918Z,102913.94
2022-08-09T13:07:50.129Z,102917.03
2022-08-09T13:10:15.660Z,102921.28
2022-08-09T13:13:09.489Z,102921.97
2022-08-09T13:15:36.003Z,102927.25
2022-08-09T13:18:09.311Z,102918.63
2022-08-09T13:22:33.658Z,102916.16
2022-08-09T13:24:44.348Z,102913.25
2022-08-09T13:26:38.981Z,102916.75
2022-08-09T13:29:13.580Z,102919.75
2022-08-09T13:32:19.085Z,102918.38
2022-08-09T13:34:53.457Z,102913.63
2022-08-09T13:37:24.538Z,102909.72
2022-08-09T13:41:50.638Z,102928.03
2022-08-09T13:42:56.614Z,102918.56
2022-08-09T13:45:31.944Z,102920.75
2022-08-09T13:48:10.822Z,102914.38
2022-08-09T13:50:37.879Z,102912.03
2022-08-09T13:53:05.430Z,102909.63
2022-08-09T13:55:34.874Z,102907.03
2022-08-09T13:58:04.916Z,102917.75
2022-08-09T14:00:36.597Z,102903.28
2022-08-09T14:04:03.809Z,102909.94
2022-08-09T14:06:02.750Z,102898.91
2022-08-09T14:08:31.487Z,102909.31
2022-08-09T14:10:59.625Z,102912.88
2022-08-09T14:14:22.485Z,102904.06
2022-08-09T14:16:28.268Z,102912.88
2022-08-09T14:18:57.198Z,102905.50
2022-08-09T14:21:29.007Z,102906.63
2022-08-09T14:23:57.481Z,102907.19
2022-08-09T14:26:32.639Z,102910.22
2022-08-09T14:29:08.342Z,102902.50
2022-08-09T14:31:54.545Z,102917.47
2022-08-09T14:34:31.423Z,102913.00
2022-08-09T14:37:08.083Z,102909.09
2022-08-09T14:39:48.011Z,102904.06
2022-08-09T14:42:30.502Z,102905.97
2022-08-09T14:46:39.033Z,102906.97
2022-08-09T14:47:58.685Z,102902.59
2022-08-09T14:50:28.761Z,102905.41
2022-08-09T14:52:55.652Z,102905.56
2022-08-09T14:55:22.518Z,102903.38
2022-08-09T14:57:49.761Z,102893.03
2022-08-09T15:00:17.532Z,102903.16
2022-08-09T15:02:47.760Z,102901.25
2022-08-09T15:05:19.266Z,102901.91
2022-08-09T15:07:55.964Z,102895.03
2022-08-09T15:10:28.533Z,102896.38
2022-08-09T15:12:56.528Z,102895.63
2022-08-09T15:15:24.549Z,102896.41
2022-08-09T15:17:56.504Z,102897.69
2022-08-09T15:21:55.138Z,102893.91
2022-08-09T15:24:09.315Z,102896.50
2022-08-09T15:25:59.933Z,102892.59
2022-08-09T15:28:28.517Z,102885.16
2022-08-09T15:31:13.354Z,102877.16
2022-08-09T15:34:32.165Z,102884.31
2022-08-09T15:36:31.927Z,102884.09
2022-08-09T15:39:00.077Z,102881.22
2022-08-09T15:41:32.225Z,102878.78
2022-08-09T15:44:02.076Z,102876.97
2022-08-09T15:46:34.311Z,102871.84
2022-08-09T15:49:21.687Z,102881.13
2022-08-09T15:52:04.405Z,102885.88
2022-08-09T15:54:46.427Z,102886.78
2022-08-09T15:57:35.308Z,102885.31
2022-08-09T16:00:24.654Z,102890.75
2022-08-09T16:02:54.873Z,102883.09
2022-08-09T16:05:26.587Z,102875.81
2022-08-09T16:08:15.262Z,102883.56
2022-08-09T16:11:02.119Z,102886.31
2022-08-09T16:14:02.930Z,102883.06
2022-08-09T16:16:20.204Z,102881.84
2022-08-09T16:18:53.294Z,102889.19
2022-08-09T16:21:26.056Z,102888.31
2022-08-09T16:23:58.282Z,102888.38
2022-08-09T16:26:33.677Z,102894.81
2022-08-09T16:29:10.579Z,102884.31
2022-08-09T16:32:19.669Z,102897.19
2022-08-09T16:34:53.371Z,102890.72
2022-08-09T16:37:20.179Z,102883.63
2022-08-09T16:40:11.777Z,102886.13
2022-08-09T16:42:44.874Z,102892.09
2022-08-09T16:45:14.967Z,102887.22
2022-08-09T16:48:50.610Z,102889.34
2022-08-09T16:50:33.740Z,102898.00
2022-08-09T16:53:02.725Z,102888.59
2022-08-09T16:55:58.513Z,102885.19
2022-08-09T16:58:18.521Z,102891.22
2022-08-09T17:00:46.554Z,102889.91
2022-08-09T17:03:22.304Z,102892.41
2022-08-09T17:06:08.997Z,102886.66
2022-08-09T17:09:01.616Z,102886.13
2022-08-09T17:11:40.723Z,102876.66
2022-08-09T17:14:26.139Z,102885.81
2022-08-09T17:16:59.818Z,102887.25
2022-08-09T17:20:05.980Z,102894.78
2022-08-09T17:22:23.909Z,102886.72
2022-08-09T17:24:55.836Z,102882.41
2022-08-09T17:27:32.610Z,102889.84
2022-08-09T17:29:59.697Z,102886.25
2022-08-09T17:32:38.036Z,102895.41
2022-08-09T17:35:11.227Z,102886.72
2022-08-09T17:38:11.770Z,102893.34
2022-08-09T17:40:32.644Z,102891.19
2022-08-09T17:43:10.921Z,102885.97
2022-08-09T17:46:03.288Z,102884.03
2022-08-09T17:48:39.723Z,102882.59
2022-08-09T17:51:17.361Z,102880.56
2022-08-09T17:53:51.453Z,102880.31
2022-08-09T17:56:21.402Z,102880.03
2022-08-09T17:58:48.449Z,102878.91
2022-08-09T18:01:22.459Z,102874.47
2022-08-09T18:03:54.699Z,102873.75
2022-08-09T18:06:31.756Z,102883.63
2022-08-09T18:09:03.451Z,102872.44
2022-08-09T18:12:04.801Z,102871.63
2022-08-09T18:14:20.661Z,102874.66
2022-08-09T18:16:49.327Z,102870.34
2022-08-09T18:20:57.102Z,102878.06
2022-08-09T18:22:05.757Z,102875.34
2022-08-09T18:24:40.561Z,102875.44
2022-08-09T18:27:09.818Z,102875.44
2022-08-09T18:30:39.882Z,102880.41
2022-08-09T18:32:29.058Z,102871.59
2022-08-09T18:34:57.062Z,102870.00
2022-08-09T18:37:47.294Z,102869.84
2022-08-09T18:40:11.305Z,102876.59
2022-08-09T18:42:39.444Z,102879.91
2022-08-09T18:45:11.191Z,102881.03
2022-08-09T18:47:58.571Z,102881.47
2022-08-09T18:50:25.669Z,102884.06
2022-08-09T18:53:00.626Z,102877.38
2022-08-09T18:55:29.390Z,102880.44
2022-08-09T18:58:19.928Z,102882.69
2022-08-09T19:00:59.547Z,102878.88
2022-08-09T19:03:27.478Z,102895.94
2022-08-09T19:06:04.169Z,102891.66
2022-08-09T19:08:32.569Z,102895.25
2022-08-09T19:10:59.573Z,102896.19
2022-08-09T19:13:49.851Z,102904.47
2022-08-09T19:16:13.443Z,102906.09
2022-08-09T19:18:48.608Z,102915.88
2022-08-09T19:21:16.560Z,102917.19
2022-08-09T19:24:33.356Z,102915.47
2022-08-09T19:26:35.698Z,102923.81
2022-08-09T19:29:09.685Z,102922.84
2022-08-09T19:31:45.752Z,102927.63
2022-08-09T19:34:21.482Z,102936.47
2022-08-09T19:36:54.468Z,102936.50
2022-08-09T19:39:43.478Z,102932.72
2022-08-09T19:42:14.734Z,102925.53
2022-08-09T19:44:50.971Z,102932.47
2022-08-09T19:47:23.653Z,102937.47
2022-08-09T19:50:07.771Z,102927.53
2022-08-09T19:52:51.715Z,102934.34
2022-08-09T19:55:30.596Z,102937.94
2022-08-09T19:58:06.797Z,102938.69
2022-08-09T20:00:45.462Z,102933.66
2022-08-09T20:04:16.899Z,102938.16
2022-08-09T20:06:03.414Z,102943.66
2022-08-09T20:08:34.899Z,102937.53
2022-08-09T20:11:02.724Z,102937.34
2022-08-09T20:13:32.421Z,102945.00
2022-08-09T20:16:37.975Z,102937.06
2022-08-09T20:19:42.734Z,102933.63
2022-08-09T20:21:56.208Z,102944.50
2022-08-09T20:24:32.095Z,102947.53
2022-08-09T20:27:05.618Z,102950.09
2022-08-09T20:29:37.627Z,102938.41
2022-08-09T20:32:29.261Z,102938.06
2022-08-09T20:34:59.661Z,102940.13
2022-08-09T20:38:18.801Z,102939.56
2022-08-09T20:40:26.523Z,102937.97
2022-08-09T20:43:00.201Z,102931.41
2022-08-09T20:45:59.267Z,102931.44
2022-08-09T20:48:29.059Z,102930.78
2022-08-09T20:50:58.875Z,102921.19
2022-08-09T20:53:35.330Z,102928.44
2022-08-09T20:56:20.311Z,102930.91
2022-08-09T20:58:47.788Z,102928.44
2022-08-09T21:01:34.842Z,102927.25
2022-08-09T21:04:08.321Z,102931.00
2022-08-09T21:06:52.994Z,102926.97
2022-08-09T21:09:32.907Z,102916.69
2022-08-09T21:14:40.658Z,102920.09
2022-08-09T21:18:22.879Z,102919.81
2022-08-09T21:20:18.157Z,102919.16
2022-08-09T21:22:46.938Z,102917.63
2022-08-09T21:25:38.063Z,102916.47
2022-08-09T21:28:07.321Z,102913.34
2022-08-09T21:30:40.557Z,102920.81
2022-08-09T21:33:08.624Z,102913.91
2022-08-09T21:35:39.326Z,102914.03
2022-08-09T21:38:09.191Z,102922.13
2022-08-09T21:40:37.117Z,102914.22
2022-08-09T21:43:06.291Z,102912.53
2022-08-09T21:45:38.949Z,102905.88
2022-08-09T21:48:07.285Z,102907.69
2022-08-09T21:50:38.499Z,102905.31
2022-08-09T21:53:19.900Z,102908.94
2022-08-09T21:55:54.712Z,102910.84
2022-08-09T21:58:21.520Z,102905.09
2022-08-09T22:00:58.252Z,102912.81
2022-08-09T22:03:25.553Z,102909.41
2022-08-09T22:05:54.216Z,102912.56
2022-08-09T22:08:24.601Z,102912.84
2022-08-09T22:11:00.196Z,102918.75
2022-08-09T22:13:43.288Z,102916.59
2022-08-09T22:16:11.883Z,102913.34
2022-08-09T22:18:44.154Z,102919.75
2022-08-09T22:21:44.646Z,102917.78
2022-08-09T22:24:17.025Z,102912.00
2022-08-09T22:26:51.590Z,102916.00
2022-08-09T22:29:20.748Z,102914.34
2022-08-09T22:31:56.832Z,102913.75
2022-08-09T22:34:28.427Z,102912.19
2022-08-09T22:36:57.096Z,102915.47
2022-08-09T22:39:56.201Z,102906.63
2022-08-09T22:42:21.309Z,102903.94
2022-08-09T22:45:00.300Z,102909.59
2022-08-09T22:48:10.863Z,102898.34
2022-08-09T22:50:26.773Z,102898.53
2022-08-09T22:52:54.863Z,102893.06
2022-08-09T22:55:25.487Z,102892.59
2022-08-09T22:58:00.684Z,102894.25
2022-08-09T23:00:31.802Z,102893.16
2022-08-09T23:02:58.639Z,102885.25
2022-08-09T23:05:25.774Z,102891.97
2022-08-09T23:08:27.526Z,102884.00
2022-08-09T23:10:57.015Z,102885.25
2022-08-09T23:13:23.897Z,102885.75
2022-08-09T23:16:03.030Z,102884.59
2022-08-09T23:18:31.163Z,102877.91
2022-08-09T23:20:57.972Z,102874.75
2022-08-09T23:23:24.791Z,102875.75
2022-08-09T23:25:51.702Z,102875.63
2022-08-09T23:28:18.528Z,102873.00
2022-08-09T23:30:51.338Z,102879.13
2022-08-09T23:33:22.998Z,102878.72
2022-08-09T23:36:06.193Z,102870.56
2022-08-09T23:38:35.915Z,102861.22
2022-08-09T23:41:27.457Z,102872.19
2022-08-09T23:43:57.169Z,102868.19
2022-08-09T23:46:23.975Z,102857.84
2022-08-09T23:48:50.791Z,102872.66
2022-08-09T23:51:17.709Z,102869.19
2022-08-09T23:53:44.520Z,102869.44
2022-08-09T23:56:11.399Z,102866.44
2022-08-09T23:58:38.253Z,102866.69
